sensor_id;sensor_type;location;lat;lon;timestamp;temperature;humidity
41985;DHT22;28319;48.116;10.818;2023-12-20T00:00:06;5.30;99.60
41985;DHT22;28319;48.116;10.818;2023-12-20T00:05:08;5.20;99.40
41985;DHT22;28319;48.116;10.818;2023-12-20T00:10:11;5.20;99.50
41985;DHT22;28319;48.116;10.818;2023-12-20T00:15:14;5.30;99.70
41985;DHT22;28319;48.116;10.818;2023-12-20T00:20:16;5.20;99.60
41985;DHT22;28319;48.116;10.818;2023-12-20T00:25:19;5.20;99.40
41985;DHT22;28319;48.116;10.818;2023-12-20T00:30:21;5.20;99.90
41985;DHT22;28319;48.116;10.818;2023-12-20T00:35:23;5.20;99.90
41985;DHT22;28319;48.116;10.818;2023-12-20T00:40:26;5.20;99.90
41985;DHT22;28319;48.116;10.818;2023-12-20T00:45:29;5.20;99.90
41985;DHT22;28319;48.116;10.818;2023-12-20T00:50:31;5.20;99.90
41985;DHT22;28319;48.116;10.818;2023-12-20T00:55:35;5.30;99.90
41985;DHT22;28319;48.116;10.818;2023-12-20T01:00:36;5.30;99.90
41985;DHT22;28319;48.116;10.818;2023-12-20T01:05:38;5.30;99.90
41985;DHT22;28319;48.116;10.818;2023-12-20T01:10:42;5.50;99.90
41985;DHT22;28319;48.116;10.818;2023-12-20T01:15:44;5.30;99.90
41985;DHT22;28319;48.116;10.818;2023-12-20T01:20:46;5.30;99.90
41985;DHT22;28319;48.116;10.818;2023-12-20T01:25:49;5.40;99.90
41985;DHT22;28319;48.116;10.818;2023-12-20T01:30:51;5.60;99.90
41985;DHT22;28319;48.116;10.818;2023-12-20T01:35:54;5.50;99.90
41985;DHT22;28319;48.116;10.818;2023-12-20T01:40:57;5.40;99.90
41985;DHT22;28319;48.116;10.818;2023-12-20T01:45:59;5.40;99.90
41985;DHT22;28319;48.116;10.818;2023-12-20T01:51:02;5.60;99.90
41985;DHT22;28319;48.116;10.818;2023-12-20T01:56:07;5.50;99.90
41985;DHT22;28319;48.116;10.818;2023-12-20T02:01:10;5.50;99.90
41985;DHT22;28319;48.116;10.818;2023-12-20T02:06:12;5.40;99.90
41985;DHT22;28319;48.116;10.818;2023-12-20T02:11:18;5.40;99.90
41985;DHT22;28319;48.116;10.818;2023-12-20T02:16:21;5.50;99.90
41985;DHT22;28319;48.116;10.818;2023-12-20T02:21:32;5.60;99.90
41985;DHT22;28319;48.116;10.818;2023-12-20T02:26:34;5.40;99.90
41985;DHT22;28319;48.116;10.818;2023-12-20T02:31:37;5.40;99.90
41985;DHT22;28319;48.116;10.818;2023-12-20T02:36:40;5.40;99.90
41985;DHT22;28319;48.116;10.818;2023-12-20T02:41:42;5.40;99.90
41985;DHT22;28319;48.116;10.818;2023-12-20T02:46:44;5.40;99.90
41985;DHT22;28319;48.116;10.818;2023-12-20T02:51:48;5.30;99.90
41985;DHT22;28319;48.116;10.818;2023-12-20T02:56:50;5.30;99.90
41985;DHT22;28319;48.116;10.818;2023-12-20T03:01:52;5.30;99.90
41985;DHT22;28319;48.116;10.818;2023-12-20T03:06:56;5.30;99.90
41985;DHT22;28319;48.116;10.818;2023-12-20T03:11:58;5.30;99.90
41985;DHT22;28319;48.116;10.818;2023-12-20T03:16:59;5.20;99.90
41985;DHT22;28319;48.116;10.818;2023-12-20T03:22:03;5.20;99.90
41985;DHT22;28319;48.116;10.818;2023-12-20T03:27:07;5.20;99.90
41985;DHT22;28319;48.116;10.818;2023-12-20T03:32:09;5.20;99.90
41985;DHT22;28319;48.116;10.818;2023-12-20T03:37:12;5.10;99.90
41985;DHT22;28319;48.116;10.818;2023-12-20T03:42:15;5.20;99.90
41985;DHT22;28319;48.116;10.818;2023-12-20T03:47:17;5.10;99.90
41985;DHT22;28319;48.116;10.818;2023-12-20T03:52:22;5.10;99.90
41985;DHT22;28319;48.116;10.818;2023-12-20T03:57:24;4.90;99.90
41985;DHT22;28319;48.116;10.818;2023-12-20T04:02:26;4.90;99.90
41985;DHT22;28319;48.116;10.818;2023-12-20T04:07:30;4.90;99.90
41985;DHT22;28319;48.116;10.818;2023-12-20T04:12:32;4.90;99.90
41985;DHT22;28319;48.116;10.818;2023-12-20T04:17:35;4.90;99.90
41985;DHT22;28319;48.116;10.818;2023-12-20T04:22:38;4.80;99.90
41985;DHT22;28319;48.116;10.818;2023-12-20T04:27:41;4.70;99.90
41985;DHT22;28319;48.116;10.818;2023-12-20T04:32:43;4.70;99.90
41985;DHT22;28319;48.116;10.818;2023-12-20T04:37:47;4.80;99.90
41985;DHT22;28319;48.116;10.818;2023-12-20T04:42:51;4.90;99.90
41985;DHT22;28319;48.116;10.818;2023-12-20T04:47:53;4.70;99.90
41985;DHT22;28319;48.116;10.818;2023-12-20T04:52:57;4.70;99.90
41985;DHT22;28319;48.116;10.818;2023-12-20T04:57:59;4.70;99.90
41985;DHT22;28319;48.116;10.818;2023-12-20T05:03:01;4.70;99.90
41985;DHT22;28319;48.116;10.818;2023-12-20T05:08:05;4.70;99.90
41985;DHT22;28319;48.116;10.818;2023-12-20T05:13:08;4.60;99.90
41985;DHT22;28319;48.116;10.818;2023-12-20T05:18:10;4.60;99.90
41985;DHT22;28319;48.116;10.818;2023-12-20T05:23:15;4.60;99.90
41985;DHT22;28319;48.116;10.818;2023-12-20T05:28:17;4.80;99.90
41985;DHT22;28319;48.116;10.818;2023-12-20T05:33:19;4.50;99.90
41985;DHT22;28319;48.116;10.818;2023-12-20T05:38:25;4.50;99.90
41985;DHT22;28319;48.116;10.818;2023-12-20T05:43:27;4.40;99.90
41985;DHT22;28319;48.116;10.818;2023-12-20T05:48:29;4.40;99.90
41985;DHT22;28319;48.116;10.818;2023-12-20T05:53:32;4.50;99.90
41985;DHT22;28319;48.116;10.818;2023-12-20T05:58:34;4.40;99.90
41985;DHT22;28319;48.116;10.818;2023-12-20T06:03:36;4.20;99.90
41985;DHT22;28319;48.116;10.818;2023-12-20T06:08:40;4.20;99.90
41985;DHT22;28319;48.116;10.818;2023-12-20T06:13:47;4.20;99.90
41985;DHT22;28319;48.116;10.818;2023-12-20T06:18:55;4.20;99.90
41985;DHT22;28319;48.116;10.818;2023-12-20T06:23:58;4.40;99.90
41985;DHT22;28319;48.116;10.818;2023-12-20T06:29:01;4.10;99.90
41985;DHT22;28319;48.116;10.818;2023-12-20T06:34:03;4.10;99.90
41985;DHT22;28319;48.116;10.818;2023-12-20T06:39:06;4.30;99.90
41985;DHT22;28319;48.116;10.818;2023-12-20T06:44:09;4.20;99.90
41985;DHT22;28319;48.116;10.818;2023-12-20T06:49:11;4.20;99.90
41985;DHT22;28319;48.116;10.818;2023-12-20T06:54:15;4.00;99.90
41985;DHT22;28319;48.116;10.818;2023-12-20T06:59:17;3.90;99.90
41985;DHT22;28319;48.116;10.818;2023-12-20T07:04:20;3.90;99.90
41985;DHT22;28319;48.116;10.818;2023-12-20T07:09:24;3.80;99.90
41985;DHT22;28319;48.116;10.818;2023-12-20T07:14:26;3.80;99.90
41985;DHT22;28319;48.116;10.818;2023-12-20T07:19:28;3.80;99.90
41985;DHT22;28319;48.116;10.818;2023-12-20T07:24:31;3.70;99.90
41985;DHT22;28319;48.116;10.818;2023-12-20T07:29:33;3.70;99.90
41985;DHT22;28319;48.116;10.818;2023-12-20T07:34:35;3.80;99.90
41985;DHT22;28319;48.116;10.818;2023-12-20T07:39:39;3.80;99.90
41985;DHT22;28319;48.116;10.818;2023-12-20T07:44:42;3.80;99.90
41985;DHT22;28319;48.116;10.818;2023-12-20T07:49:44;3.80;99.90
41985;DHT22;28319;48.116;10.818;2023-12-20T07:54:47;3.80;99.90
41985;DHT22;28319;48.116;10.818;2023-12-20T07:59:49;3.90;99.90
41985;DHT22;28319;48.116;10.818;2023-12-20T08:04:51;3.90;99.90
41985;DHT22;28319;48.116;10.818;2023-12-20T08:09:55;3.90;99.90
41985;DHT22;28319;48.116;10.818;2023-12-20T08:14:57;3.90;99.90
41985;DHT22;28319;48.116;10.818;2023-12-20T08:19:59;4.00;99.90
41985;DHT22;28319;48.116;10.818;2023-12-20T08:25:03;4.00;99.90
41985;DHT22;28319;48.116;10.818;2023-12-20T08:30:06;4.10;99.90
41985;DHT22;28319;48.116;10.818;2023-12-20T08:35:09;4.00;99.90
41985;DHT22;28319;48.116;10.818;2023-12-20T08:40:13;4.10;99.90
41985;DHT22;28319;48.116;10.818;2023-12-20T08:45:15;4.10;99.90
41985;DHT22;28319;48.116;10.818;2023-12-20T08:50:17;4.20;99.90
41985;DHT22;28319;48.116;10.818;2023-12-20T08:55:21;4.20;99.90
41985;DHT22;28319;48.116;10.818;2023-12-20T09:00:23;4.30;99.90
41985;DHT22;28319;48.116;10.818;2023-12-20T09:05:28;4.30;99.90
41985;DHT22;28319;48.116;10.818;2023-12-20T09:10:32;4.30;99.90
41985;DHT22;28319;48.116;10.818;2023-12-20T09:15:34;4.40;99.90
41985;DHT22;28319;48.116;10.818;2023-12-20T09:20:37;4.40;99.90
41985;DHT22;28319;48.116;10.818;2023-12-20T09:25:40;4.50;99.90
41985;DHT22;28319;48.116;10.818;2023-12-20T09:30:42;4.50;99.90
41985;DHT22;28319;48.116;10.818;2023-12-20T09:35:46;4.50;99.90
41985;DHT22;28319;48.116;10.818;2023-12-20T09:40:50;4.60;99.90
41985;DHT22;28319;48.116;10.818;2023-12-20T09:45:53;4.60;99.90
41985;DHT22;28319;48.116;10.818;2023-12-20T09:50:56;4.90;99.90
41985;DHT22;28319;48.116;10.818;2023-12-20T09:55:59;4.80;99.90
41985;DHT22;28319;48.116;10.818;2023-12-20T10:01:02;4.80;99.90
41985;DHT22;28319;48.116;10.818;2023-12-20T10:06:04;4.80;99.90
41985;DHT22;28319;48.116;10.818;2023-12-20T10:11:08;4.80;99.90
41985;DHT22;28319;48.116;10.818;2023-12-20T10:16:10;4.90;99.90
41985;DHT22;28319;48.116;10.818;2023-12-20T10:21:12;4.90;99.90
41985;DHT22;28319;48.116;10.818;2023-12-20T10:26:21;4.90;99.90
41985;DHT22;28319;48.116;10.818;2023-12-20T10:31:27;5.00;99.90
41985;DHT22;28319;48.116;10.818;2023-12-20T10:36:32;5.10;99.90
41985;DHT22;28319;48.116;10.818;2023-12-20T10:41:37;5.20;99.90
41985;DHT22;28319;48.116;10.818;2023-12-20T10:46:42;5.20;99.90
41985;DHT22;28319;48.116;10.818;2023-12-20T10:51:50;5.20;99.90
41985;DHT22;28319;48.116;10.818;2023-12-20T10:56:57;5.20;99.90
41985;DHT22;28319;48.116;10.818;2023-12-20T11:02:02;5.20;99.90
41985;DHT22;28319;48.116;10.818;2023-12-20T11:07:15;5.20;99.90
41985;DHT22;28319;48.116;10.818;2023-12-20T11:12:24;5.20;99.90
41985;DHT22;28319;48.116;10.818;2023-12-20T11:17:27;5.30;99.90
41985;DHT22;28319;48.116;10.818;2023-12-20T11:22:31;5.30;99.90
41985;DHT22;28319;48.116;10.818;2023-12-20T11:27:35;5.30;99.90
41985;DHT22;28319;48.116;10.818;2023-12-20T11:32:37;5.70;99.90
41985;DHT22;28319;48.116;10.818;2023-12-20T11:37:40;5.50;99.90
41985;DHT22;28319;48.116;10.818;2023-12-20T11:42:46;5.50;99.90
41985;DHT22;28319;48.116;10.818;2023-12-20T11:47:50;5.60;99.90
41985;DHT22;28319;48.116;10.818;2023-12-20T11:52:54;5.60;99.90
41985;DHT22;28319;48.116;10.818;2023-12-20T11:57:58;5.50;99.90
41985;DHT22;28319;48.116;10.818;2023-12-20T12:03:00;5.70;99.90
41985;DHT22;28319;48.116;10.818;2023-12-20T12:08:04;5.60;99.90
41985;DHT22;28319;48.116;10.818;2023-12-20T12:13:08;5.50;99.90
41985;DHT22;28319;48.116;10.818;2023-12-20T12:18:10;5.70;99.90
41985;DHT22;28319;48.116;10.818;2023-12-20T12:23:12;5.70;99.90
41985;DHT22;28319;48.116;10.818;2023-12-20T12:28:16;5.90;99.90
41985;DHT22;28319;48.116;10.818;2023-12-20T12:33:18;5.90;99.90
41985;DHT22;28319;48.116;10.818;2023-12-20T12:38:20;5.90;99.90
41985;DHT22;28319;48.116;10.818;2023-12-20T12:43:24;5.80;99.90
41985;DHT22;28319;48.116;10.818;2023-12-20T12:48:26;5.50;99.90
41985;DHT22;28319;48.116;10.818;2023-12-20T12:53:28;5.30;99.90
41985;DHT22;28319;48.116;10.818;2023-12-20T12:58:32;5.40;99.90
41985;DHT22;28319;48.116;10.818;2023-12-20T13:03:35;5.00;99.90
41985;DHT22;28319;48.116;10.818;2023-12-20T13:08:37;4.80;99.90
41985;DHT22;28319;48.116;10.818;2023-12-20T13:13:40;4.80;99.90
41985;DHT22;28319;48.116;10.818;2023-12-20T13:18:42;4.80;99.90
41985;DHT22;28319;48.116;10.818;2023-12-20T13:23:44;4.80;99.90
41985;DHT22;28319;48.116;10.818;2023-12-20T13:28:47;4.70;99.90
41985;DHT22;28319;48.116;10.818;2023-12-20T13:33:49;4.60;99.90
41985;DHT22;28319;48.116;10.818;2023-12-20T13:38:52;4.60;99.90
41985;DHT22;28319;48.116;10.818;2023-12-20T13:43:56;4.60;99.90
41985;DHT22;28319;48.116;10.818;2023-12-20T13:48:58;4.60;99.90
41985;DHT22;28319;48.116;10.818;2023-12-20T13:54:00;4.70;99.90
41985;DHT22;28319;48.116;10.818;2023-12-20T13:59:03;4.80;99.90
41985;DHT22;28319;48.116;10.818;2023-12-20T14:04:05;4.80;99.90
41985;DHT22;28319;48.116;10.818;2023-12-20T14:09:07;5.00;99.90
41985;DHT22;28319;48.116;10.818;2023-12-20T14:14:13;4.80;99.90
41985;DHT22;28319;48.116;10.818;2023-12-20T14:19:16;4.80;99.90
41985;DHT22;28319;48.116;10.818;2023-12-20T14:24:18;4.70;99.90
41985;DHT22;28319;48.116;10.818;2023-12-20T14:29:22;4.70;99.90
41985;DHT22;28319;48.116;10.818;2023-12-20T14:34:24;4.60;99.90
41985;DHT22;28319;48.116;10.818;2023-12-20T14:39:26;4.60;99.90
41985;DHT22;28319;48.116;10.818;2023-12-20T14:44:29;4.60;99.90
41985;DHT22;28319;48.116;10.818;2023-12-20T14:49:31;4.60;99.90
41985;DHT22;28319;48.116;10.818;2023-12-20T14:54:33;4.60;99.90
41985;DHT22;28319;48.116;10.818;2023-12-20T14:59:37;4.70;99.90
41985;DHT22;28319;48.116;10.818;2023-12-20T15:04:39;4.60;99.90
41985;DHT22;28319;48.116;10.818;2023-12-20T15:09:42;4.70;99.90
41985;DHT22;28319;48.116;10.818;2023-12-20T15:14:48;4.40;99.90
41985;DHT22;28319;48.116;10.818;2023-12-20T15:19:50;4.40;99.90
41985;DHT22;28319;48.116;10.818;2023-12-20T15:24:52;4.30;99.90
41985;DHT22;28319;48.116;10.818;2023-12-20T15:29:56;4.20;99.90
41985;DHT22;28319;48.116;10.818;2023-12-20T15:35:00;4.50;99.90
41985;DHT22;28319;48.116;10.818;2023-12-20T15:40:04;4.20;99.90
41985;DHT22;28319;48.116;10.818;2023-12-20T15:45:09;4.10;99.90
41985;DHT22;28319;48.116;10.818;2023-12-20T15:50:12;4.20;99.90
41985;DHT22;28319;48.116;10.818;2023-12-20T15:55:14;4.10;99.90
41985;DHT22;28319;48.116;10.818;2023-12-20T16:00:18;4.10;99.90
41985;DHT22;28319;48.116;10.818;2023-12-20T16:05:20;4.10;99.90
41985;DHT22;28319;48.116;10.818;2023-12-20T16:10:22;4.10;99.90
41985;DHT22;28319;48.116;10.818;2023-12-20T16:15:26;4.10;99.90
41985;DHT22;28319;48.116;10.818;2023-12-20T16:20:28;4.00;99.90
41985;DHT22;28319;48.116;10.818;2023-12-20T16:25:30;3.90;99.90
41985;DHT22;28319;48.116;10.818;2023-12-20T16:30:33;4.00;99.90
41985;DHT22;28319;48.116;10.818;2023-12-20T16:35:35;3.80;99.90
41985;DHT22;28319;48.116;10.818;2023-12-20T16:40:37;3.70;99.90
41985;DHT22;28319;48.116;10.818;2023-12-20T16:45:40;3.70;99.90
41985;DHT22;28319;48.116;10.818;2023-12-20T16:50:43;3.80;99.90
41985;DHT22;28319;48.116;10.818;2023-12-20T16:55:45;3.70;99.90
41985;DHT22;28319;48.116;10.818;2023-12-20T17:00:48;3.80;99.90
41985;DHT22;28319;48.116;10.818;2023-12-20T17:05:51;3.70;99.90
41985;DHT22;28319;48.116;10.818;2023-12-20T17:10:53;4.00;99.90
41985;DHT22;28319;48.116;10.818;2023-12-20T17:15:57;3.70;99.90
41985;DHT22;28319;48.116;10.818;2023-12-20T17:20:59;3.70;99.90
41985;DHT22;28319;48.116;10.818;2023-12-20T17:26:01;3.70;99.90
41985;DHT22;28319;48.116;10.818;2023-12-20T17:31:04;3.70;99.90
41985;DHT22;28319;48.116;10.818;2023-12-20T17:36:07;3.70;99.90
41985;DHT22;28319;48.116;10.818;2023-12-20T17:41:11;3.60;99.90
41985;DHT22;28319;48.116;10.818;2023-12-20T17:46:14;3.70;99.90
41985;DHT22;28319;48.116;10.818;2023-12-20T17:51:16;3.70;99.90
41985;DHT22;28319;48.116;10.818;2023-12-20T17:56:18;3.70;99.90
41985;DHT22;28319;48.116;10.818;2023-12-20T18:01:22;3.70;99.90
41985;DHT22;28319;48.116;10.818;2023-12-20T18:06:24;3.80;99.90
41985;DHT22;28319;48.116;10.818;2023-12-20T18:11:26;3.60;99.90
41985;DHT22;28319;48.116;10.818;2023-12-20T18:16:29;3.60;99.90
41985;DHT22;28319;48.116;10.818;2023-12-20T18:21:31;3.50;99.90
41985;DHT22;28319;48.116;10.818;2023-12-20T18:26:33;3.40;99.90
41985;DHT22;28319;48.116;10.818;2023-12-20T18:31:38;3.40;99.90
41985;DHT22;28319;48.116;10.818;2023-12-20T18:36:43;3.40;99.90
41985;DHT22;28319;48.116;10.818;2023-12-20T18:41:45;3.30;99.90
41985;DHT22;28319;48.116;10.818;2023-12-20T18:46:50;3.30;99.90
41985;DHT22;28319;48.116;10.818;2023-12-20T18:51:52;3.30;99.90
41985;DHT22;28319;48.116;10.818;2023-12-20T18:56:54;3.40;99.90
41985;DHT22;28319;48.116;10.818;2023-12-20T19:01:57;3.40;99.90
41985;DHT22;28319;48.116;10.818;2023-12-20T19:07:00;3.40;99.90
41985;DHT22;28319;48.116;10.818;2023-12-20T19:12:03;3.40;99.90
41985;DHT22;28319;48.116;10.818;2023-12-20T19:17:06;3.50;99.90
41985;DHT22;28319;48.116;10.818;2023-12-20T19:22:09;3.50;99.90
41985;DHT22;28319;48.116;10.818;2023-12-20T19:27:11;3.60;99.90
41985;DHT22;28319;48.116;10.818;2023-12-20T19:32:15;3.50;99.90
41985;DHT22;28319;48.116;10.818;2023-12-20T19:37:17;3.50;99.90
41985;DHT22;28319;48.116;10.818;2023-12-20T19:42:19;3.50;99.90
41985;DHT22;28319;48.116;10.818;2023-12-20T19:47:22;3.50;99.90
41985;DHT22;28319;48.116;10.818;2023-12-20T19:52:24;3.50;99.90
41985;DHT22;28319;48.116;10.818;2023-12-20T19:57:26;3.50;99.90
41985;DHT22;28319;48.116;10.818;2023-12-20T20:02:30;3.50;99.90
41985;DHT22;28319;48.116;10.818;2023-12-20T20:07:32;3.50;99.90
41985;DHT22;28319;48.116;10.818;2023-12-20T20:12:36;3.50;99.90
41985;DHT22;28319;48.116;10.818;2023-12-20T20:17:40;3.50;99.90
41985;DHT22;28319;48.116;10.818;2023-12-20T20:22:42;3.40;99.90
41985;DHT22;28319;48.116;10.818;2023-12-20T20:27:45;3.40;99.90
41985;DHT22;28319;48.116;10.818;2023-12-20T20:32:48;3.40;99.90
41985;DHT22;28319;48.116;10.818;2023-12-20T20:37:50;3.50;99.90
41985;DHT22;28319;48.116;10.818;2023-12-20T20:42:52;3.50;99.90
41985;DHT22;28319;48.116;10.818;2023-12-20T20:47:56;3.50;99.90
41985;DHT22;28319;48.116;10.818;2023-12-20T20:52:58;3.50;99.90
41985;DHT22;28319;48.116;10.818;2023-12-20T20:58:00;3.60;99.90
41985;DHT22;28319;48.116;10.818;2023-12-20T21:03:04;3.40;99.90
41985;DHT22;28319;48.116;10.818;2023-12-20T21:08:06;3.40;99.90
41985;DHT22;28319;48.116;10.818;2023-12-20T21:13:08;3.40;99.90
41985;DHT22;28319;48.116;10.818;2023-12-20T21:18:13;3.40;99.90
41985;DHT22;28319;48.116;10.818;2023-12-20T21:23:15;3.40;99.90
41985;DHT22;28319;48.116;10.818;2023-12-20T21:28:17;3.50;99.90
41985;DHT22;28319;48.116;10.818;2023-12-20T21:33:20;3.30;99.90
41985;DHT22;28319;48.116;10.818;2023-12-20T21:38:22;3.30;99.90
41985;DHT22;28319;48.116;10.818;2023-12-20T21:43:24;3.20;99.90
41985;DHT22;28319;48.116;10.818;2023-12-20T21:48:28;3.20;99.90
41985;DHT22;28319;48.116;10.818;2023-12-20T21:53:32;3.10;99.90
41985;DHT22;28319;48.116;10.818;2023-12-20T21:58:34;3.00;99.90
41985;DHT22;28319;48.116;10.818;2023-12-20T22:03:38;3.00;99.90
41985;DHT22;28319;48.116;10.818;2023-12-20T22:08:40;3.00;99.90
41985;DHT22;28319;48.116;10.818;2023-12-20T22:13:42;3.00;99.90
41985;DHT22;28319;48.116;10.818;2023-12-20T22:18:45;3.00;99.90
41985;DHT22;28319;48.116;10.818;2023-12-20T22:23:47;3.10;99.90
41985;DHT22;28319;48.116;10.818;2023-12-20T22:28:49;3.10;99.90
41985;DHT22;28319;48.116;10.818;2023-12-20T22:33:52;3.10;99.90
41985;DHT22;28319;48.116;10.818;2023-12-20T22:38:55;3.10;99.90
41985;DHT22;28319;48.116;10.818;2023-12-20T22:43:57;3.20;99.90
41985;DHT22;28319;48.116;10.818;2023-12-20T22:49:01;3.20;99.90
41985;DHT22;28319;48.116;10.818;2023-12-20T22:54:03;3.40;99.90
41985;DHT22;28319;48.116;10.818;2023-12-20T22:59:06;3.30;99.90
41985;DHT22;28319;48.116;10.818;2023-12-20T23:04:11;3.30;99.90
41985;DHT22;28319;48.116;10.818;2023-12-20T23:09:14;3.40;99.90
41985;DHT22;28319;48.116;10.818;2023-12-20T23:14:16;3.80;99.90
41985;DHT22;28319;48.116;10.818;2023-12-20T23:19:20;3.40;99.90
41985;DHT22;28319;48.116;10.818;2023-12-20T23:24:22;3.50;99.90
41985;DHT22;28319;48.116;10.818;2023-12-20T23:29:25;3.50;99.90
41985;DHT22;28319;48.116;10.818;2023-12-20T23:34:29;3.60;99.90
41985;DHT22;28319;48.116;10.818;2023-12-20T23:39:31;3.50;99.90
41985;DHT22;28319;48.116;10.818;2023-12-20T23:44:34;3.60;99.90
41985;DHT22;28319;48.116;10.818;2023-12-20T23:49:38;3.60;99.90
41985;DHT22;28319;48.116;10.818;2023-12-20T23:54:40;3.60;99.90
41985;DHT22;28319;48.116;10.818;2023-12-20T23:59:43;3.60;99.90
